createdAt,value
2019-05-01T00:04:11.065Z,17.73
2019-05-01T00:06:40.847Z,14.60
2019-05-01T00:09:08.299Z,14.32
2019-05-01T00:11:35.743Z,14.18
2019-05-01T00:14:03.188Z,18.67
2019-05-01T00:16:30.676Z,13.32
2019-05-01T00:18:58.284Z,14.75
2019-05-01T00:21:25.736Z,13.65
2019-05-01T00:23:53.192Z,16.45
2019-05-01T00:26:20.642Z,15.20
2019-05-01T00:28:48.150Z,17.62
2019-05-01T00:31:15.603Z,14.98
2019-05-01T00:33:43.080Z,11.57
2019-05-01T00:36:10.518Z,13.02
2019-05-01T00:38:37.966Z,13.73
2019-05-01T00:41:05.514Z,12.55
2019-05-01T00:43:33.017Z,15.13
2019-05-01T00:46:00.478Z,16.33
2019-05-01T00:48:27.931Z,14.30
2019-05-01T00:50:55.371Z,12.98
2019-05-01T00:53:22.814Z,15.82
2019-05-01T00:55:50.705Z,13.73
2019-05-01T00:58:21.171Z,14.55
2019-05-01T01:00:48.634Z,16.25
2019-05-01T01:03:16.086Z,13.52
2019-05-01T01:05:43.600Z,16.85
2019-05-01T01:08:11.051Z,14.65
2019-05-01T01:10:38.544Z,15.38
2019-05-01T01:13:06.023Z,14.55
2019-05-01T01:15:33.487Z,14.25
2019-05-01T01:18:00.942Z,16.25
2019-05-01T01:20:28.383Z,19.05
2019-05-01T01:22:55.838Z,15.32
2019-05-01T01:25:23.328Z,19.70
2019-05-01T01:27:50.782Z,13.05
2019-05-01T01:30:18.243Z,16.65
2019-05-01T01:32:45.714Z,15.25
2019-05-01T01:35:13.194Z,15.13
2019-05-01T01:37:40.644Z,14.10
2019-05-01T01:40:08.167Z,15.20
2019-05-01T01:42:35.616Z,16.62
2019-05-01T01:45:06.557Z,15.80
2019-05-01T01:47:34.028Z,20.73
2019-05-01T01:50:01.588Z,17.17
2019-05-01T01:52:29.334Z,17.20
2019-05-01T01:54:56.928Z,15.77
2019-05-01T01:57:24.367Z,16.80
2019-05-01T01:59:51.856Z,16.30
2019-05-01T02:02:24.955Z,16.35
2019-05-01T02:05:06.918Z,18.05
2019-05-01T02:07:34.363Z,15.30
2019-05-01T02:10:01.818Z,20.23
2019-05-01T02:12:29.267Z,18.48
2019-05-01T02:14:56.712Z,14.75
2019-05-01T02:17:24.188Z,15.32
2019-05-01T02:19:51.634Z,17.10
2019-05-01T02:22:19.080Z,19.50
2019-05-01T02:29:44.076Z,15.23
2019-05-01T02:32:11.540Z,17.95
2019-05-01T02:34:38.992Z,16.37
2019-05-01T02:39:33.423Z,14.55
2019-05-01T03:53:25.155Z,15.40
2019-05-01T03:55:52.692Z,14.38
2019-05-01T03:58:20.201Z,16.25
2019-05-01T04:00:50.315Z,14.87
2019-05-01T04:03:32.669Z,14.38
2019-05-01T04:06:00.112Z,17.75
2019-05-01T04:08:27.559Z,16.23
2019-05-01T04:10:55.005Z,14.95
2019-05-01T04:13:22.465Z,24.20
2019-05-01T04:15:49.939Z,16.60
2019-05-01T04:18:17.394Z,14.18
2019-05-01T04:20:44.832Z,20.48
2019-05-01T04:23:12.282Z,13.70
2019-05-01T04:25:39.739Z,14.63
2019-05-01T04:31:05.057Z,23.45
2019-05-01T04:33:32.567Z,15.25
2019-05-01T04:36:02.097Z,12.75
2019-05-01T04:38:29.562Z,16.05
2019-05-01T04:40:57.018Z,13.45
2019-05-01T04:43:24.463Z,18.05
2019-05-01T04:45:51.916Z,14.35
2019-05-01T04:48:19.512Z,17.58
2019-05-01T04:50:46.970Z,14.68
2019-05-01T04:53:14.457Z,13.23
2019-05-01T04:55:41.925Z,20.27
2019-05-01T04:58:09.374Z,16.12
2019-05-01T05:00:36.828Z,19.90
2019-05-01T05:03:06.865Z,15.68
2019-05-01T05:05:34.311Z,15.27
2019-05-01T05:08:01.769Z,19.48
2019-05-01T05:10:29.240Z,14.63
2019-05-01T05:12:56.700Z,15.63
2019-05-01T05:15:34.253Z,14.82
2019-05-01T05:18:02.209Z,27.00
2019-05-01T05:20:29.653Z,17.30
2019-05-01T05:22:57.106Z,13.32
2019-05-01T05:25:24.592Z,14.13
2019-05-01T05:27:52.039Z,17.85
2019-05-01T05:30:19.503Z,17.77
2019-05-01T05:32:46.954Z,17.95
2019-05-01T05:35:14.396Z,17.25
2019-05-01T05:40:34.895Z,28.52
2019-05-01T05:43:02.371Z,37.70
2019-05-01T05:45:29.821Z,22.80
2019-05-01T05:47:57.279Z,19.42
2019-05-01T05:50:27.540Z,22.10
2019-05-01T05:52:58.609Z,21.87
2019-05-01T05:55:31.592Z,19.25
2019-05-01T05:57:59.047Z,23.12
2019-05-01T06:00:28.218Z,18.48
2019-05-01T06:02:56.650Z,23.05
2019-05-01T06:08:16.834Z,31.48
2019-05-01T06:10:44.290Z,24.50
2019-05-01T06:13:18.003Z,20.95
2019-05-01T06:15:50.594Z,27.83
2019-05-01T06:18:19.497Z,22.42
2019-05-01T06:20:46.987Z,27.42
2019-05-01T06:23:15.666Z,19.70
2019-05-01T06:25:43.456Z,20.58
2019-05-01T06:28:10.931Z,21.17
2019-05-01T06:30:41.998Z,26.50
2019-05-01T06:33:09.325Z,22.95
2019-05-01T06:35:33.983Z,23.25
2019-05-01T06:38:02.314Z,19.65
2019-05-01T06:40:34.281Z,26.00
2019-05-01T06:43:01.784Z,36.55
2019-05-01T06:45:29.339Z,33.70
2019-05-01T06:47:57.263Z,29.37
2019-05-01T06:50:28.130Z,25.60
2019-05-01T06:52:55.586Z,25.58
2019-05-01T06:55:27.181Z,26.10
2019-05-01T06:57:52.590Z,27.08
2019-05-01T07:00:20.112Z,27.10
2019-05-01T07:02:47.560Z,23.40
2019-05-01T07:05:16.502Z,23.58
2019-05-01T07:07:43.233Z,31.23
2019-05-01T07:10:10.568Z,28.83
2019-05-01T07:12:38.073Z,31.12
2019-05-01T07:15:05.534Z,23.90
2019-05-01T07:17:33.117Z,26.45
2019-05-01T07:20:01.155Z,22.10
2019-05-01T07:22:28.667Z,25.85
2019-05-01T07:24:59.020Z,30.67
2019-05-01T07:27:25.094Z,25.40
2019-05-01T07:29:51.239Z,24.65
2019-05-01T07:32:18.720Z,26.17
2019-05-01T07:34:48.879Z,27.58
2019-05-01T07:37:13.860Z,29.58
2019-05-01T07:39:44.806Z,23.75
2019-05-01T07:42:14.313Z,20.33
2019-05-01T07:44:41.787Z,31.62
2019-05-01T07:47:14.902Z,21.37
2019-05-01T07:49:53.154Z,21.05
2019-05-01T07:52:19.998Z,24.05
2019-05-01T07:54:47.450Z,27.10
2019-05-01T07:57:14.920Z,24.63
2019-05-01T07:59:42.416Z,19.52
2019-05-01T08:02:10.020Z,21.85
2019-05-01T08:04:37.546Z,21.92
2019-05-01T08:07:05.047Z,26.35
2019-05-01T08:09:32.506Z,24.60
2019-05-01T08:11:59.969Z,21.70
2019-05-01T08:14:27.427Z,23.55
2019-05-01T08:16:54.978Z,21.92
2019-05-01T08:19:25.135Z,20.55
2019-05-01T08:22:08.231Z,22.55
2019-05-01T08:24:35.734Z,19.77
2019-05-01T08:27:03.195Z,24.17
2019-05-01T08:29:36.978Z,24.30
2019-05-01T08:32:07.726Z,22.05
2019-05-01T08:34:47.856Z,19.85
2019-05-01T08:37:02.761Z,20.42
2019-05-01T08:39:30.218Z,20.17
2019-05-01T08:41:57.676Z,19.77
2019-05-01T08:44:29.564Z,24.45
2019-05-01T08:46:59.283Z,20.02
2019-05-01T08:49:26.770Z,20.42
2019-05-01T08:51:54.226Z,21.95
2019-05-01T08:54:21.691Z,19.23
2019-05-01T08:56:53.133Z,19.77
2019-05-01T08:59:19.333Z,20.25
2019-05-01T09:01:45.869Z,16.90
2019-05-01T09:04:13.089Z,20.60
2019-05-01T09:06:43.425Z,20.40
2019-05-01T09:09:08.240Z,23.62
2019-05-01T09:11:36.200Z,19.60
2019-05-01T09:14:01.649Z,21.65
2019-05-01T09:16:30.246Z,19.37
2019-05-01T09:18:56.604Z,19.45
2019-05-01T09:21:24.055Z,22.80
2019-05-01T09:23:53.156Z,17.77
2019-05-01T09:26:31.335Z,21.48
2019-05-01T09:28:59.260Z,18.80
2019-05-01T09:31:26.747Z,19.85
2019-05-01T09:33:54.215Z,20.52
2019-05-01T09:36:21.666Z,22.98
2019-05-01T09:38:50.083Z,25.85
2019-05-01T09:41:16.675Z,20.98
2019-05-01T09:43:44.151Z,18.87
2019-05-01T09:46:11.619Z,21.77
2019-05-01T09:48:39.321Z,20.62
2019-05-01T09:53:36.024Z,20.95
2019-05-01T09:56:07.696Z,19.50
2019-05-01T10:00:58.568Z,18.83
2019-05-01T10:18:08.291Z,20.70
2019-05-01T10:20:35.750Z,19.10
2019-05-01T10:57:40.229Z,21.45
2019-05-01T11:00:06.743Z,20.25
2019-05-01T11:02:34.262Z,18.40
2019-05-01T11:05:01.971Z,17.92
2019-05-01T11:07:29.524Z,23.10
2019-05-01T11:14:51.110Z,17.60
2019-05-01T11:17:18.558Z,17.17
2019-05-01T11:19:46.014Z,15.00
2019-05-01T11:22:13.563Z,21.77
2019-05-01T11:24:41.085Z,19.90
2019-05-01T11:27:08.550Z,21.33
2019-05-01T11:29:35.998Z,16.95
2019-05-01T11:32:08.959Z,20.92
2019-05-01T11:34:42.178Z,25.85
2019-05-01T11:40:07.475Z,22.40
2019-05-01T11:42:34.952Z,18.37
2019-05-01T11:49:56.482Z,16.80
2019-05-01T11:52:23.974Z,18.90
2019-05-01T11:54:51.502Z,22.35
2019-05-01T11:57:18.953Z,16.85
2019-05-01T11:59:46.416Z,18.70
2019-05-01T12:02:13.877Z,16.35
2019-05-01T12:04:41.379Z,20.67
2019-05-01T12:07:08.882Z,16.00
2019-05-01T12:09:36.334Z,14.25
2019-05-01T12:12:03.795Z,34.53
2019-05-01T12:14:31.329Z,18.05
2019-05-01T12:16:59.351Z,18.30
2019-05-01T12:19:29.479Z,18.55
2019-05-01T12:21:56.954Z,19.73
2019-05-01T12:24:24.410Z,16.48
2019-05-01T12:26:51.908Z,18.58
2019-05-01T12:29:19.436Z,16.52
2019-05-01T12:31:46.927Z,15.02
2019-05-01T12:34:14.374Z,15.73
2019-05-01T12:36:41.841Z,16.45
2019-05-01T12:39:17.206Z,17.08
2019-05-01T12:41:46.580Z,19.73
2019-05-01T12:44:14.024Z,14.25
2019-05-01T12:46:56.257Z,13.18
2019-05-01T12:49:23.757Z,13.90
2019-05-01T12:51:51.255Z,14.82
2019-05-01T12:54:20.674Z,16.42
2019-05-01T12:56:50.029Z,12.77
2019-05-01T12:59:17.526Z,18.02
2019-05-01T13:01:45.034Z,15.68
2019-05-01T13:04:12.508Z,16.80
2019-05-01T13:06:49.098Z,13.15
2019-05-01T13:09:07.451Z,15.52
2019-05-01T13:11:34.919Z,15.60
2019-05-01T13:14:02.372Z,13.25
2019-05-01T13:16:29.848Z,14.13
2019-05-01T13:18:57.314Z,14.10
2019-05-01T13:21:25.220Z,12.68
2019-05-01T13:23:52.678Z,15.70
2019-05-01T13:26:20.156Z,14.35
2019-05-01T13:28:49.050Z,17.15
2019-05-01T13:31:17.991Z,13.15
2019-05-01T13:33:45.458Z,15.80
2019-05-01T13:36:12.927Z,14.52
2019-05-01T13:38:40.416Z,16.25
2019-05-01T13:41:07.878Z,19.55
2019-05-01T13:43:35.329Z,18.45
2019-05-01T13:46:02.785Z,19.00
2019-05-01T13:48:30.255Z,14.87
2019-05-01T13:50:57.744Z,14.32
2019-05-01T13:53:25.202Z,14.40
2019-05-01T14:25:43.028Z,15.05
2019-05-01T14:28:10.559Z,16.20
2019-05-01T15:09:50.719Z,17.50
2019-05-01T15:12:18.228Z,15.05
2019-05-01T15:14:49.316Z,14.40
2019-05-01T15:17:18.770Z,14.55
2019-05-01T15:19:47.943Z,11.82
2019-05-01T15:22:15.418Z,13.52
2019-05-01T15:24:43.083Z,11.68
2019-05-01T15:27:10.543Z,10.68
2019-05-01T15:29:38.390Z,13.18
2019-05-01T15:32:05.863Z,11.00
2019-05-01T15:34:33.331Z,14.68
2019-05-01T15:37:00.811Z,11.77
2019-05-01T15:39:30.220Z,20.35
2019-05-01T15:42:03.279Z,15.30
2019-05-01T15:44:30.744Z,14.98
2019-05-01T15:46:58.320Z,14.75
2019-05-01T15:49:25.783Z,14.43
2019-05-01T15:51:53.234Z,12.40
2019-05-01T15:54:20.681Z,13.18
2019-05-01T15:56:48.172Z,10.77
2019-05-01T15:59:15.660Z,12.07
2019-05-01T16:01:43.113Z,12.52
2019-05-01T16:04:10.578Z,16.23
2019-05-01T16:09:05.223Z,12.55
2019-05-01T16:39:05.844Z,13.00
2019-05-01T17:50:32.414Z,16.23
2019-05-01T17:52:59.880Z,16.13
2019-05-01T17:57:54.788Z,15.07
2019-05-01T18:08:09.959Z,10.52
2019-05-01T18:10:39.704Z,13.05
2019-05-01T18:13:08.082Z,12.35
2019-05-01T18:15:38.702Z,13.35
2019-05-01T18:18:06.182Z,11.68
2019-05-01T18:20:41.452Z,15.70
2019-05-01T18:23:12.524Z,19.50
2019-05-01T18:25:42.126Z,14.63
2019-05-01T18:28:15.181Z,19.30
2019-05-01T18:30:42.822Z,13.98
2019-05-01T18:33:10.313Z,13.77
2019-05-01T18:35:37.788Z,17.75
2019-05-01T18:38:12.775Z,13.20
2019-05-01T18:40:38.608Z,19.60
2019-05-01T18:43:06.076Z,15.32
2019-05-01T18:48:27.189Z,16.48
2019-05-01T18:50:56.309Z,14.57
2019-05-01T18:53:22.387Z,20.92
2019-05-01T18:55:50.184Z,13.62
2019-05-01T18:58:17.844Z,16.10
2019-05-01T19:00:45.306Z,14.07
2019-05-01T19:03:12.815Z,15.20
2019-05-01T19:05:43.112Z,14.52
2019-05-01T19:08:07.820Z,14.57
2019-05-01T19:10:35.275Z,22.35
2019-05-01T19:13:02.758Z,25.90
2019-05-01T19:15:30.359Z,17.33
2019-05-01T19:17:57.833Z,19.10
2019-05-01T19:20:25.369Z,17.80
2019-05-01T19:22:52.826Z,29.20
2019-05-01T19:25:20.364Z,20.23
2019-05-01T19:27:47.873Z,18.45
2019-05-01T19:30:16.825Z,21.35
2019-05-01T19:32:42.822Z,23.73
2019-05-01T19:35:10.339Z,22.00
2019-05-01T19:37:37.817Z,23.12
2019-05-01T19:40:05.462Z,21.80
2019-05-01T19:42:32.918Z,19.25
2019-05-01T19:45:00.376Z,19.10
2019-05-01T19:47:27.936Z,21.27
2019-05-01T19:49:55.420Z,18.80
2019-05-01T19:52:22.970Z,17.33
2019-05-01T19:54:50.466Z,25.30
2019-05-01T19:57:17.926Z,19.12
2019-05-01T19:59:45.387Z,17.05
2019-05-01T20:02:12.889Z,23.73
2019-05-01T20:04:40.377Z,17.12
2019-05-01T20:07:10.543Z,18.37
2019-05-01T20:09:35.449Z,15.13
2019-05-01T20:12:02.887Z,20.75
2019-05-01T20:14:30.339Z,17.02
2019-05-01T20:16:57.868Z,15.80
2019-05-01T20:19:25.334Z,22.10
2019-05-01T20:21:52.843Z,14.75
2019-05-01T20:24:20.388Z,13.70
2019-05-01T20:26:49.827Z,17.40
2019-05-01T20:29:17.760Z,16.08
2019-05-01T20:31:45.733Z,18.23
2019-05-01T20:34:17.365Z,17.20
2019-05-01T20:36:39.739Z,13.62
2019-05-01T20:39:07.183Z,19.90
2019-05-01T20:41:34.644Z,14.85
2019-05-01T20:44:02.187Z,18.90
2019-05-01T20:46:29.767Z,19.27
2019-05-01T20:49:01.334Z,14.93
2019-05-01T20:51:25.637Z,16.40
2019-05-01T20:53:53.194Z,14.40
2019-05-01T20:56:23.565Z,14.82
2019-05-01T20:58:51.040Z,16.87
2019-05-01T21:01:18.495Z,15.10
2019-05-01T21:03:52.506Z,18.30
2019-05-01T21:06:19.041Z,16.45
2019-05-01T21:08:48.755Z,15.02
2019-05-01T21:11:16.620Z,15.30
2019-05-01T21:13:44.096Z,16.23
2019-05-01T21:16:11.760Z,14.45
2019-05-01T21:18:39.212Z,19.55
2019-05-01T21:21:06.680Z,14.77
2019-05-01T21:23:34.163Z,16.50
2019-05-01T21:26:03.733Z,15.23
2019-05-01T21:28:29.184Z,15.80
2019-05-01T21:30:56.629Z,15.30
2019-05-01T21:33:24.114Z,17.40
2019-05-01T21:35:53.307Z,14.25
2019-05-01T21:38:19.081Z,16.67
2019-05-01T21:40:46.584Z,16.12
2019-05-01T21:43:14.043Z,18.83
2019-05-01T21:45:43.237Z,14.48
2019-05-01T21:48:09.142Z,13.45
2019-05-01T21:50:36.611Z,16.00
2019-05-01T21:53:06.842Z,13.82
2019-05-01T21:55:32.081Z,18.58
2019-05-01T21:57:59.040Z,12.63
2019-05-01T22:00:26.546Z,17.73
2019-05-01T22:02:54.067Z,12.37
2019-05-01T22:05:21.538Z,16.98
2019-05-01T22:07:48.992Z,15.50
2019-05-01T22:10:16.469Z,17.75
2019-05-01T22:12:48.512Z,19.95
2019-05-01T22:15:14.117Z,15.15
2019-05-01T22:17:45.158Z,16.05
2019-05-01T22:20:13.083Z,15.70
2019-05-01T22:22:50.487Z,15.50
2019-05-01T22:25:20.399Z,18.52
2019-05-01T22:27:47.839Z,12.30
2019-05-01T22:30:20.820Z,17.95
2019-05-01T22:32:50.819Z,13.62
2019-05-01T22:35:18.260Z,14.00
2019-05-01T22:37:45.735Z,13.75
2019-05-01T22:40:13.203Z,22.45
2019-05-01T22:42:40.651Z,16.02
2019-05-01T22:45:08.115Z,12.93
2019-05-01T22:47:35.618Z,16.02
2019-05-01T22:50:03.094Z,13.05
2019-05-01T22:52:30.552Z,14.93
2019-05-01T22:54:57.990Z,17.35
2019-05-01T22:57:25.451Z,15.00
2019-05-01T22:59:52.944Z,14.57
2019-05-01T23:02:24.129Z,16.90
2019-05-01T23:04:52.049Z,18.08
2019-05-01T23:07:18.595Z,13.27
2019-05-01T23:09:44.886Z,14.45
2019-05-01T23:12:12.543Z,14.02
2019-05-01T23:14:40.326Z,14.93
2019-05-01T23:17:09.496Z,17.58
2019-05-01T23:19:37.129Z,14.55
2019-05-01T23:22:04.696Z,17.33
2019-05-01T23:24:32.204Z,15.52
2019-05-01T23:26:59.681Z,19.25
2019-05-01T23:29:27.177Z,18.10
2019-05-01T23:31:54.677Z,23.60
2019-05-01T23:34:26.248Z,16.00
2019-05-01T23:36:49.615Z,13.45
2019-05-01T23:39:17.073Z,14.18
2019-05-01T23:41:46.788Z,19.60
2019-05-01T23:44:12.018Z,17.37
2019-05-01T23:46:39.477Z,14.35
2019-05-01T23:49:06.943Z,14.20
2019-05-01T23:51:34.410Z,14.63
2019-05-01T23:54:01.865Z,19.42
2019-05-01T23:56:31.117Z,15.45
2019-05-01T23:58:56.797Z,14.63
